Terminal Aerodrome Forecast
Issued by NWS

Home | Current Version | Previous Version | Text Only | Print | Product List | Glossary On
Versions: 1 2 3 4 5 6 7 8 9 10 11 12 13 14 15 16 17 18 19 20 21
000
FTUS42 KMLB 192100 AAA
TAFSFB
TAF AMD
KSFB 192100Z 1921/2018 27014G20KT P6SM SCT025 BKN050
     FM200000 29008KT P6SM SCT012 BKN020
     FM201400 33012KT P6SM SCT040 BKN080
      TEMPO 2014/2018 BKN040=

USA.gov is the U.S. government's official web portal to all federal, state and local government web resources and services.